Terminal Aerodrome Forecast
Issued by NWS

Home | Current Version | Previous Version | Text Only | Print | Product List | Glossary On
Versions: 1 2 3 4 5 6 7 8 9 10 11 12 13 14 15 16 17 18 19 20 21 22 23 24 25 26 27 28 29 30 31 32 33 34 35 36 37
204
FTUS46 KLOX 251451 AAA
TAFLAX
TAF AMD
KLAX 251451Z 2515/2618 14003KT P6SM FEW022 SCT060
     FM252000 26015KT P6SM SCT030 BKN045
     FM260300 26010KT P6SM SCT250
     FM260800 26006KT P6SM BKN025
     FM261100 12006KT P6SM OVC025
     FM261700 23006KT P6SM BKN030=

USA.gov is the U.S. government's official web portal to all federal, state and local government web resources and services.